Time;durP1;ratioP1;P1;durP2;ratioP2;P2;SDS_P1;SDS_P2;PMS_P1;PMS_P2;Temp;Humidity;BMP_temperature;BMP_pressure;BME280_temperature;BME280_humidity;BME280_pressure;Samples;Min_cycle;Max_cycle;Signal;HPM_P1;HPM_P2
2023/05/22 00:00:08;;;;;;;24.02;14.02;;;;;;;12.47;100.00;101554.97;5031048;28;20449;-44
2023/05/22 00:02:37;;;;;;;29.48;14.48;;;;;;;12.18;100.00;101500.38;5031935;28;20048;-43
2023/05/22 00:05:04;;;;;;;27.38;14.82;;;;;;;12.40;100.00;101540.25;5030616;28;20141;-46
2023/05/22 00:07:29;;;;;;;28.52;14.35;;;;;;;12.35;100.00;101523.66;5031502;28;20049;-49
2023/05/22 00:09:55;;;;;;;25.85;15.93;;;;;;;12.04;100.00;101472.66;5032282;28;20072;-45
2023/05/22 00:12:20;;;;;;;23.63;15.68;;;;;;;12.04;100.00;101473.53;5032071;28;20473;-44
2023/05/22 00:14:46;;;;;;;28.50;15.27;;;;;;;12.43;100.00;101539.28;5030447;28;20088;-44
2023/05/22 00:17:15;;;;;;;31.60;15.02;;;;;;;12.42;100.00;101538.41;5031692;28;20088;-46
2023/05/22 00:19:41;;;;;;;34.15;14.95;;;;;;;12.13;100.00;101483.81;5031617;28;20030;-45
2023/05/22 00:22:06;;;;;;;28.73;15.45;;;;;;;12.36;100.00;101525.38;5031956;28;20067;-48
2023/05/22 00:24:31;;;;;;;34.50;15.60;;;;;;;11.99;100.00;101454.31;5031255;28;20057;-44
2023/05/22 00:26:57;;;;;;;36.28;16.65;;;;;;;12.43;100.00;101529.59;5030752;28;20033;-45
2023/05/22 00:29:22;;;;;;;29.85;14.65;;;;;;;12.43;100.00;101526.09;5031915;28;20300;-47
2023/05/22 00:31:47;;;;;;;32.92;15.15;;;;;;;12.42;100.00;101527.84;5031711;28;20473;-44
2023/05/22 00:34:13;;;;;;;30.45;14.52;;;;;;;12.36;100.00;101515.69;5028359;28;20045;-46
2023/05/22 00:36:38;;;;;;;32.53;16.35;;;;;;;11.96;100.00;101457.06;5013748;28;20030;-45
2023/05/22 00:39:04;;;;;;;32.20;15.60;;;;;;;12.39;100.00;101527.94;5030624;28;20053;-45
2023/05/22 00:41:32;;;;;;;41.05;15.73;;;;;;;12.12;100.00;101482.06;5031748;28;20041;-44
2023/05/22 00:43:58;;;;;;;36.05;16.73;;;;;;;12.09;100.00;101487.44;5031352;28;20045;-47
2023/05/22 00:46:24;;;;;;;30.23;14.70;;;;;;;11.70;100.00;101412.91;5031569;28;20029;-45
2023/05/22 00:48:51;;;;;;;26.77;15.20;;;;;;;12.35;100.00;101537.72;5029772;28;20036;-44
2023/05/22 00:51:18;;;;;;;27.92;15.57;;;;;;;11.23;100.00;101336.91;5030706;28;20040;-46
2023/05/22 00:53:45;;;;;;;37.30;16.25;;;;;;;12.01;100.00;101472.75;5014014;28;20041;-50
2023/05/22 00:56:11;;;;;;;30.08;15.38;;;;;;;12.40;100.00;101537.59;5035046;28;20032;-44
2023/05/22 00:58:36;;;;;;;32.00;16.13;;;;;;;12.44;100.00;101541.88;5035210;28;20048;-48
2023/05/22 01:01:02;;;;;;;31.45;15.60;;;;;;;12.42;100.00;101525.22;5034983;28;20392;-47
2023/05/22 01:03:28;;;;;;;36.80;15.60;;;;;;;12.48;100.00;101524.16;5033604;28;20037;-48
2023/05/22 01:05:54;;;;;;;32.30;16.80;;;;;;;12.20;100.00;101471.31;5032156;28;20136;-44
2023/05/22 01:08:20;;;;;;;29.10;15.20;;;;;;;12.45;100.00;101509.28;5035197;28;20117;-46
2023/05/22 01:10:49;;;;;;;27.77;15.32;;;;;;;12.14;100.00;101448.59;5033674;28;20433;-49
2023/05/22 01:13:45;;;;;;;28.77;15.52;;;;;;;12.39;100.00;101496.25;5033404;28;20040;-50
2023/05/22 01:16:31;;;;;;;35.10;16.70;;;;;;;12.36;100.00;101504.28;5034613;28;20374;-47
2023/05/22 01:19:16;;;;;;;38.13;17.92;;;;;;;12.31;100.00;101508.81;5033792;28;20033;-47
2023/05/22 01:21:56;;;;;;;37.55;18.50;;;;;;;12.28;100.00;101519.47;5033203;28;20447;-50
2023/05/22 01:24:50;;;;;;;31.40;17.30;;;;;;;12.23;100.00;101505.53;5033325;28;20046;-50
2023/05/22 01:27:46;;;;;;;36.10;17.90;;;;;;;12.25;100.00;101515.16;5033227;28;20053;-43
2023/05/22 01:30:33;;;;;;;31.35;18.67;;;;;;;12.24;100.00;101501.97;5033990;28;20094;-45
2023/05/22 01:32:59;;;;;;;30.02;17.65;;;;;;;12.18;100.00;101487.19;5034557;28;20082;-50
2023/05/22 01:35:25;;;;;;;36.10;19.10;;;;;;;12.23;100.00;101492.34;5034583;28;20435;-45
2023/05/22 01:37:50;;;;;;;36.45;20.63;;;;;;;12.20;100.00;101474.78;5031547;28;20030;-46
2023/05/22 01:40:17;;;;;;;46.05;21.73;;;;;;;11.85;100.00;101417.75;5033382;28;20076;-45
2023/05/22 01:42:42;;;;;;;44.83;20.40;;;;;;;11.76;100.00;101393.44;5033077;28;20092;-45
2023/05/22 01:45:10;;;;;;;38.53;20.90;;;;;;;12.21;100.00;101465.97;5033955;28;20033;-46
2023/05/22 01:47:35;;;;;;;40.72;22.92;;;;;;;12.21;100.00;101451.91;5034396;28;20380;-44
2023/05/22 01:50:01;;;;;;;40.15;21.67;;;;;;;12.10;100.00;101428.50;5034225;28;20030;-47
2023/05/22 01:52:42;;;;;;;37.92;21.90;;;;;;;12.19;100.00;101435.28;5032753;28;20025;-43
2023/05/22 01:55:16;;;;;;;40.97;23.77;;;;;;;12.17;100.00;101437.09;5031971;28;20037;-46
2023/05/22 01:58:00;;;;;;;39.25;22.33;;;;;;;12.23;100.00;101443.03;5032769;28;20396;-46
2023/05/22 02:00:26;;;;;;;37.42;23.98;;;;;;;12.24;100.00;101441.25;5034159;28;20444;-47
2023/05/22 02:03:00;;;;;;;43.25;23.35;;;;;;;12.24;100.00;101436.00;5032899;28;20091;-45
2023/05/22 02:05:26;;;;;;;38.97;23.58;;;;;;;12.15;100.00;101425.69;5031791;28;20063;-44
2023/05/22 02:07:55;;;;;;;44.20;24.42;;;;;;;11.95;100.00;101373.53;5033182;28;20033;-44
2023/05/22 02:10:20;;;;;;;38.33;24.00;;;;;;;12.24;100.00;101421.03;5032442;28;20036;-47
2023/05/22 02:12:46;;;;;;;48.67;26.77;;;;;;;12.24;100.00;101418.38;5031125;28;20044;-47
2023/05/22 02:15:12;;;;;;;49.72;24.70;;;;;;;12.27;100.00;101412.16;5032402;28;20124;-45
2023/05/22 02:17:40;;;;;;;35.65;23.15;;;;;;;12.28;100.00;101432.38;5033713;28;20037;-44
2023/05/22 02:20:13;;;;;;;39.13;23.17;;;;;;;11.91;100.00;101363.97;5033565;28;20129;-46
2023/05/22 02:22:43;;;;;;;45.28;24.55;;;;;;;12.26;100.00;101421.84;5031997;28;20068;-44
2023/05/22 02:25:15;;;;;;;45.00;24.60;;;;;;;12.23;100.00;101410.53;5033872;28;20049;-46
2023/05/22 02:27:45;;;;;;;38.50;22.77;;;;;;;11.87;100.00;101341.25;5033575;28;20033;-44
2023/05/22 02:30:11;;;;;;;43.80;22.90;;;;;;;12.05;100.00;101385.53;5031939;28;20506;-44
2023/05/22 02:32:38;;;;;;;36.53;22.50;;;;;;;12.21;100.00;101420.25;5032694;28;20477;-43
2023/05/22 02:35:03;;;;;;;36.30;22.90;;;;;;;12.14;100.00;101411.63;5033115;28;20064;-50
2023/05/22 02:37:29;;;;;;;45.78;23.58;;;;;;;11.91;100.00;101371.88;5033551;28;20034;-44
2023/05/22 02:39:55;;;;;;;44.85;25.10;;;;;;;12.16;100.00;101403.69;5033322;28;20033;-44
2023/05/22 02:42:20;;;;;;;43.00;25.25;;;;;;;12.17;100.00;101421.25;5033025;28;20123;-49
2023/05/22 02:44:45;;;;;;;48.45;25.95;;;;;;;12.06;100.00;101412.78;5033279;28;20470;-45
2023/05/22 02:47:11;;;;;;;53.63;25.55;;;;;;;12.16;100.00;101419.53;5033137;28;20168;-47
2023/05/22 02:49:36;;;;;;;52.30;28.42;;;;;;;12.20;100.00;101424.66;5031760;28;20447;-46
2023/05/22 02:52:01;;;;;;;45.50;26.33;;;;;;;12.20;100.00;101418.53;5032851;28;20061;-47
2023/05/22 02:54:27;;;;;;;47.03;27.42;;;;;;;12.14;100.00;101424.84;5025049;28;20049;-48
2023/05/22 02:56:52;;;;;;;53.75;28.02;;;;;;;12.06;100.00;101399.56;5033026;28;20095;-47
2023/05/22 02:59:17;;;;;;;47.95;27.95;;;;;;;11.80;100.00;101359.00;5032816;28;20033;-47
2023/05/22 03:01:43;;;;;;;46.97;28.08;;;;;;;11.77;100.00;101356.47;5032312;28;20469;-46
2023/05/22 03:04:08;;;;;;;42.88;28.65;;;;;;;12.13;100.00;101424.88;5032866;28;20532;-49
2023/05/22 03:06:34;;;;;;;43.20;28.02;;;;;;;12.08;100.00;101425.03;5032691;28;20041;-46
2023/05/22 03:09:00;;;;;;;48.67;28.30;;;;;;;11.87;100.00;101387.84;5032666;28;20071;-45
2023/05/22 03:11:25;;;;;;;43.30;27.30;;;;;;;11.78;100.00;101375.78;5031184;28;20037;-45
2023/05/22 03:13:50;;;;;;;45.88;27.88;;;;;;;11.62;100.00;101350.72;5032325;28;20091;-44
2023/05/22 03:16:16;;;;;;;45.65;27.83;;;;;;;12.10;100.00;101423.22;5031314;28;20037;-45
2023/05/22 03:18:41;;;;;;;53.05;30.27;;;;;;;11.78;100.00;101366.13;5030849;28;20041;-44
2023/05/22 03:21:06;;;;;;;45.25;28.35;;;;;;;12.26;100.00;101426.25;5032462;28;20120;-46
2023/05/22 03:23:32;;;;;;;45.05;27.77;;;;;;;12.34;100.00;101433.03;5031132;28;20124;-45
2023/05/22 03:25:57;;;;;;;50.30;28.15;;;;;;;12.02;100.00;101377.72;5032436;28;20137;-46
2023/05/22 03:28:22;;;;;;;45.88;28.98;;;;;;;12.38;100.00;101437.31;5031485;28;20183;-44
2023/05/22 03:30:48;;;;;;;56.83;30.30;;;;;;;12.32;100.00;101412.84;5031178;28;20124;-46
2023/05/22 03:33:13;;;;;;;55.95;29.65;;;;;;;12.30;100.00;101402.38;5032028;28;20029;-44
2023/05/22 03:35:38;;;;;;;51.45;29.00;;;;;;;12.43;100.00;101416.06;5026786;28;20070;-45
2023/05/22 03:38:04;;;;;;;58.40;30.67;;;;;;;12.49;100.00;101417.66;5028198;28;20037;-44
2023/05/22 03:40:29;;;;;;;51.75;29.15;;;;;;;12.51;100.00;101419.31;5032436;28;20436;-48
2023/05/22 03:42:54;;;;;;;49.65;30.55;;;;;;;12.50;100.00;101451.91;5030923;28;20056;-46
2023/05/22 03:45:20;;;;;;;46.38;27.70;;;;;;;12.46;100.00;101410.69;5030341;28;20065;-46
2023/05/22 03:47:45;;;;;;;55.22;28.88;;;;;;;12.58;100.00;101422.66;5032116;28;20048;-49
2023/05/22 03:50:11;;;;;;;53.75;29.02;;;;;;;12.57;100.00;101420.91;5032014;28;20036;-48
2023/05/22 03:52:36;;;;;;;46.70;28.95;;;;;;;11.45;100.00;101240.47;5030519;28;20042;-44
2023/05/22 03:55:02;;;;;;;47.13;29.52;;;;;;;12.16;100.00;101348.28;5031008;28;20044;-47
2023/05/22 03:57:27;;;;;;;50.78;28.33;;;;;;;12.60;100.00;101412.88;5032060;28;20041;-45
2023/05/22 03:59:52;;;;;;;55.00;30.92;;;;;;;12.61;100.00;101415.47;5032250;28;20034;-45
2023/05/22 04:02:19;;;;;;;48.30;32.10;;;;;;;12.52;100.00;101412.28;5031965;28;20473;-47
2023/05/22 04:04:45;;;;;;;53.80;28.48;;;;;;;12.60;100.00;101424.31;5031796;28;20150;-45
2023/05/22 04:07:13;;;;;;;49.70;30.40;;;;;;;12.27;100.00;101354.06;5031946;28;20088;-49
2023/05/22 04:09:39;;;;;;;47.88;28.98;;;;;;;12.07;100.00;101303.69;5029429;28;20488;-51
2023/05/22 04:12:05;;;;;;;44.30;28.92;;;;;;;12.72;100.00;101413.38;5031955;28;20034;-44
2023/05/22 04:14:31;;;;;;;45.92;28.65;;;;;;;12.73;100.00;101416.84;5031985;28;20078;-45
2023/05/22 04:16:57;;;;;;;54.03;28.73;;;;;;;12.74;100.00;101414.19;5030697;28;20032;-44
2023/05/22 04:19:22;;;;;;;52.47;28.95;;;;;;;12.73;100.00;101412.44;5031608;28;20030;-45
2023/05/22 04:21:47;;;;;;;48.55;28.05;;;;;;;12.71;100.00;101409.00;5031687;28;20034;-46
2023/05/22 04:24:13;;;;;;;44.45;26.83;;;;;;;12.77;100.00;101407.94;5030743;28;20452;-47
2023/05/22 04:26:38;;;;;;;49.85;29.10;;;;;;;12.78;100.00;101423.72;5031066;28;20091;-46
2023/05/22 04:29:05;;;;;;;55.40;29.42;;;;;;;12.78;100.00;101422.88;5031154;28;20096;-44
2023/05/22 04:31:31;;;;;;;42.70;27.48;;;;;;;12.50;100.00;101367.41;5034284;28;20041;-49
2023/05/22 04:33:58;;;;;;;48.45;29.23;;;;;;;12.67;100.00;101398.56;5035192;28;20041;-44
2023/05/22 04:36:27;;;;;;;51.53;28.52;;;;;;;12.51;100.00;101363.00;5018125;28;20506;-48
2023/05/22 04:38:53;;;;;;;49.35;28.08;;;;;;;12.89;100.00;101424.25;5034316;28;20032;-43
2023/05/22 04:41:21;;;;;;;53.58;28.60;;;;;;;12.96;100.00;101431.03;5035706;28;20033;-46
2023/05/22 04:43:47;;;;;;;57.80;28.50;;;;;;;13.01;100.00;101430.03;5033717;28;20029;-50
2023/05/22 04:46:15;;;;;;;53.95;28.52;;;;;;;12.88;100.00;101387.28;5034053;28;20033;-46
2023/05/22 04:48:41;;;;;;;56.15;27.73;;;;;;;13.00;100.00;101415.97;5035153;28;20099;-44
2023/05/22 04:51:06;;;;;;;51.25;25.52;;;;;;;13.03;100.00;101421.16;5035490;28;20042;-45
2023/05/22 04:53:32;;;;;;;48.50;26.83;;;;;;;12.98;100.00;101415.16;5035004;28;20125;-48
2023/05/22 04:55:58;;;;;;;49.90;27.45;;;;;;;13.07;100.00;101424.56;5017026;28;20642;-49
2023/05/22 04:58:26;;;;;;;48.60;26.17;;;;;;;12.72;100.00;101372.88;5033965;28;20021;-49
2023/05/22 05:00:52;;;;;;;49.05;27.13;;;;;;;13.04;100.00;101430.81;5033579;28;20477;-45
2023/05/22 05:03:17;;;;;;;48.45;26.42;;;;;;;13.04;100.00;101430.81;5027126;28;20041;-45
2023/05/22 05:05:43;;;;;;;49.35;25.65;;;;;;;13.09;100.00;101433.31;5033778;28;20036;-44
2023/05/22 05:08:09;;;;;;;55.65;27.15;;;;;;;13.19;100.00;101440.03;5035167;28;20119;-44
2023/05/22 05:10:34;;;;;;;51.47;25.63;;;;;;;13.11;100.00;101427.06;5034947;28;20088;-47
2023/05/22 05:13:00;;;;;;;48.30;25.92;;;;;;;13.19;100.00;101440.03;5033430;28;20030;-48
2023/05/22 05:15:26;;;;;;;53.92;27.15;;;;;;;12.88;100.00;101377.59;5034694;28;20136;-46
2023/05/22 05:17:51;;;;;;;43.70;26.88;;;;;;;13.29;100.00;101437.03;5033618;28;20124;-47
2023/05/22 05:20:17;;;;;;;53.38;27.42;;;;;;;13.36;100.00;101442.97;5033120;28;20075;-47
2023/05/22 05:22:44;;;;;;;47.22;25.98;;;;;;;13.42;100.00;101434.84;5033584;28;20181;-47
2023/05/22 05:25:10;;;;;;;42.38;25.65;;;;;;;13.42;100.00;101448.06;5034330;28;20076;-46
2023/05/22 05:27:35;;;;;;;41.78;24.98;;;;;;;13.36;100.00;101425.34;5034618;28;20041;-44
2023/05/22 05:30:01;;;;;;;48.22;25.30;;;;;;;13.46;100.00;101431.16;5034595;28;20041;-45
2023/05/22 05:32:26;;;;;;;53.42;26.38;;;;;;;13.53;100.00;101451.19;5033100;28;20033;-46
2023/05/22 05:34:52;;;;;;;52.90;26.95;;;;;;;13.21;100.00;101378.28;5034507;28;20042;-47
2023/05/22 05:37:17;;;;;;;41.60;25.80;;;;;;;13.72;100.00;101448.78;5031631;28;20489;-45
2023/05/22 05:39:42;;;;;;;47.20;25.85;;;;;;;12.86;100.00;101315.16;5034103;28;20121;-46
2023/05/22 05:42:08;;;;;;;48.65;26.35;;;;;;;13.46;100.00;101421.44;5034201;28;20041;-45
2023/05/22 05:44:33;;;;;;;50.90;26.67;;;;;;;13.76;100.00;101458.31;5034183;28;20052;-46
2023/05/22 05:46:58;;;;;;;45.58;26.45;;;;;;;13.44;100.00;101402.13;5034116;28;20065;-47
2023/05/22 05:49:23;;;;;;;41.78;25.45;;;;;;;13.56;100.00;101398.19;5032691;28;20049;-46
2023/05/22 05:51:49;;;;;;;40.97;24.88;;;;;;;13.78;100.00;101411.47;5032561;28;20033;-44
2023/05/22 05:54:14;;;;;;;46.33;26.80;;;;;;;14.13;100.00;101460.50;5032735;28;20048;-45
2023/05/22 05:56:40;;;;;;;43.22;26.30;;;;;;;13.81;100.00;101411.38;5034607;28;20149;-44
2023/05/22 05:59:05;;;;;;;47.90;26.83;;;;;;;14.12;100.00;101474.66;5028244;28;20037;-48
2023/05/22 06:01:33;;;;;;;45.97;26.48;;;;;;;14.10;100.00;101483.50;5008576;28;20034;-45
2023/05/22 06:04:01;;;;;;;45.50;27.63;;;;;;;14.05;100.00;101469.59;5007733;28;20184;-49
2023/05/22 06:06:29;;;;;;;46.72;26.15;;;;;;;13.84;100.00;101430.66;5013957;28;20038;-46
2023/05/22 06:08:55;;;;;;;44.25;25.65;;;;;;;14.17;100.00;101459.44;5012301;28;20108;-49
2023/05/22 06:11:21;;;;;;;42.92;26.45;;;;;;;14.35;100.00;101464.09;5013339;28;20117;-43
2023/05/22 06:13:46;;;;;;;40.88;26.90;;;;;;;14.20;100.00;101414.31;5013349;28;20045;-46
2023/05/22 06:16:12;;;;;;;41.38;25.98;;;;;;;14.46;100.00;101416.88;5012645;28;20041;-45
2023/05/22 06:18:37;;;;;;;40.83;25.50;;;;;;;14.80;100.00;101475.53;5012573;28;20112;-46
2023/05/22 06:21:03;;;;;;;42.88;24.50;;;;;;;15.04;100.00;101487.81;5012526;28;20486;-46
2023/05/22 06:23:28;;;;;;;38.17;25.40;;;;;;;15.12;100.00;101483.06;5029429;28;20056;-45
2023/05/22 06:25:54;;;;;;;34.97;24.42;;;;;;;14.76;100.00;101415.66;5017063;28;20042;-46
2023/05/22 06:28:19;;;;;;;39.00;24.88;;;;;;;14.97;100.00;101438.63;5014151;28;20069;-45
2023/05/22 06:30:45;;;;;;;42.72;25.33;;;;;;;15.37;100.00;101484.72;5023204;23;20054;-46
2023/05/22 06:33:10;;;;;;;40.42;22.70;;;;;;;15.37;100.00;101488.22;4993804;28;20137;-45
2023/05/22 06:35:35;;;;;;;36.65;22.48;;;;;;;15.39;100.00;101472.25;4992985;28;20042;-53
2023/05/22 06:38:01;;;;;;;41.67;22.73;;;;;;;15.31;100.00;101459.31;5001378;28;20049;-44
2023/05/22 06:40:26;;;;;;;38.72;21.05;;;;;;;15.56;100.00;101493.63;4995996;28;20038;-47
2023/05/22 06:42:52;;;;;;;31.55;20.88;;;;;;;15.62;100.00;101496.91;5013221;28;20465;-46
2023/05/22 06:45:18;;;;;;;39.88;22.77;;;;;;;15.83;100.00;101483.63;5008522;28;20109;-47
2023/05/22 06:47:44;;;;;;;34.88;20.85;;;;;;;15.92;100.00;101494.72;4976317;28;20030;-51
2023/05/22 06:50:09;;;;;;;37.90;21.17;;;;;;;15.94;100.00;101492.84;4992553;28;20465;-47
2023/05/22 06:52:37;;;;;;;37.50;20.73;;;;;;;15.73;100.00;101436.25;4990648;28;20034;-49
2023/05/22 06:55:04;;;;;;;31.15;20.55;;;;;;;15.84;100.00;101427.84;4973961;28;20066;-46
2023/05/22 06:57:32;;;;;;;33.55;19.30;;;;;;;16.33;100.00;101479.56;5013076;28;20648;-44
2023/05/22 06:59:58;;;;;;;34.45;19.95;;;;;;;16.27;100.00;101479.84;5013247;28;20128;-51
2023/05/22 07:02:23;;;;;;;34.25;20.17;;;;;;;16.26;100.00;101492.28;4992692;28;20207;-50
2023/05/22 07:04:48;;;;;;;33.45;20.45;;;;;;;16.25;100.00;101489.69;4993547;28;20030;-46
2023/05/22 07:07:14;;;;;;;32.88;19.27;;;;;;;16.32;100.00;101499.97;4991211;28;20042;-45
2023/05/22 07:09:39;;;;;;;32.90;19.25;;;;;;;16.18;100.00;101448.41;4976034;28;20113;-43
2023/05/22 07:12:05;;;;;;;32.75;19.63;;;;;;;16.09;100.00;101454.13;5000223;28;20041;-49
2023/05/22 07:14:30;;;;;;;31.45;20.13;;;;;;;16.38;100.00;101501.47;5006894;28;20093;-49
2023/05/22 07:16:56;;;;;;;33.80;18.38;;;;;;;16.09;100.00;101446.16;4993227;28;20030;-49
2023/05/22 07:19:24;;;;;;;33.70;18.85;;;;;;;16.39;100.00;101505.00;4993270;28;20038;-43
2023/05/22 07:21:50;;;;;;;32.80;19.17;;;;;;;16.77;100.00;101530.69;4993424;28;20035;-47
2023/05/22 07:24:15;;;;;;;33.53;19.83;;;;;;;16.79;100.00;101534.13;4975657;28;20104;-44
2023/05/22 07:26:45;;;;;;;31.65;19.80;;;;;;;16.99;100.00;101528.72;4993323;28;20125;-45
2023/05/22 07:29:11;;;;;;;29.38;19.63;;;;;;;17.08;100.00;101522.97;5006853;28;20543;-50
2023/05/22 07:31:37;;;;;;;26.42;17.83;;;;;;;17.13;100.00;101531.59;4992927;28;20113;-45
2023/05/22 07:34:03;;;;;;;30.10;18.67;;;;;;;16.37;100.00;101358.09;4975839;28;20043;-46
2023/05/22 07:36:28;;;;;;;33.03;18.92;;;;;;;17.34;100.00;101527.00;4993077;28;20037;-44
2023/05/22 07:38:54;;;;;;;28.92;18.55;;;;;;;17.38;100.00;101520.63;4992467;28;20042;-44
2023/05/22 07:41:20;;;;;;;25.08;17.80;;;;;;;17.45;100.00;101530.88;4991044;28;20043;-47
2023/05/22 07:43:46;;;;;;;34.67;19.45;;;;;;;17.44;100.00;101530.97;4993145;28;20070;-44
2023/05/22 07:46:11;;;;;;;33.20;18.65;;;;;;;17.57;100.00;101529.44;4995754;28;20378;-45
2023/05/22 07:48:36;;;;;;;27.60;16.58;;;;;;;17.86;100.00;101533.28;4992729;28;20031;-48
2023/05/22 07:51:02;;;;;;;26.83;15.90;;;;;;;17.77;100.00;101493.81;4992405;28;20041;-49
2023/05/22 07:53:28;;;;;;;26.92;15.65;;;;;;;18.50;100.00;101493.47;4991503;28;20128;-43
2023/05/22 07:55:53;;;;;;;30.00;14.27;;;;;;;18.54;100.00;101487.84;4992512;28;20036;-48
2023/05/22 07:58:18;;;;;;;26.70;15.07;;;;;;;19.26;100.00;101550.53;4992663;28;20042;-49
2023/05/22 08:00:44;;;;;;;20.42;13.65;;;;;;;19.56;100.00;101560.31;4992918;28;20104;-44
2023/05/22 08:03:09;;;;;;;24.15;14.02;;;;;;;19.84;100.00;101548.00;5003062;28;20405;-48
2023/05/22 08:05:35;;;;;;;22.98;13.65;;;;;;;20.24;100.00;101512.56;4990802;28;20154;-45
2023/05/22 08:08:01;;;;;;;27.58;13.27;;;;;;;21.06;100.00;101539.47;4996352;28;20038;-47
2023/05/22 08:10:27;;;;;;;23.50;12.63;;;;;;;21.15;100.00;101499.59;4996512;28;20120;-46
2023/05/22 08:12:52;;;;;;;18.52;13.00;;;;;;;21.76;100.00;101557.97;4995749;28;20542;-47
2023/05/22 08:15:18;;;;;;;19.85;12.20;;;;;;;21.73;100.00;101557.31;4996403;28;20049;-48
2023/05/22 08:17:43;;;;;;;18.40;11.95;;;;;;;21.19;100.00;101509.13;4995508;28;20034;-48
2023/05/22 08:20:10;;;;;;;20.65;11.38;;;;;;;21.92;100.00;101556.97;5007935;28;20034;-46
2023/05/22 08:22:37;;;;;;;20.65;12.70;;;;;;;22.08;100.00;101558.47;5016057;28;20482;-47
2023/05/22 08:25:03;;;;;;;18.83;12.95;;;;;;;21.89;100.00;101541.94;5014524;28;20057;-47
2023/05/22 08:27:29;;;;;;;24.27;13.15;;;;;;;21.94;100.00;101565.75;5003169;28;20069;-50
2023/05/22 08:29:55;;;;;;;20.40;11.85;;;;;;;22.02;100.00;101560.72;4996105;28;20039;-47
2023/05/22 08:32:20;;;;;;;21.85;12.38;;;;;;;22.65;100.00;101560.78;4996333;28;20034;-46
2023/05/22 08:34:46;;;;;;;20.30;12.65;;;;;;;22.38;100.00;101542.09;5003851;28;20496;-46
2023/05/22 08:37:13;;;;;;;22.50;13.98;;;;;;;22.82;100.00;101547.00;4999318;28;20038;-46
2023/05/22 08:39:39;;;;;;;18.38;12.55;;;;;;;22.21;100.00;101519.13;4976862;28;20057;-44
2023/05/22 08:42:04;;;;;;;21.83;13.20;;;;;;;22.23;100.00;101498.44;4982056;28;20121;-43
2023/05/22 08:44:30;;;;;;;19.42;11.63;;;;;;;22.75;100.00;101534.97;4978792;28;20033;-47
2023/05/22 08:46:58;;;;;;;20.90;12.98;;;;;;;22.83;100.00;101500.38;4995483;28;20124;-47
2023/05/22 08:49:24;;;;;;;18.50;13.20;;;;;;;23.11;100.00;101539.50;4992690;28;20105;-44
2023/05/22 08:51:55;;;;;;;21.67;13.40;;;;;;;23.19;100.00;101555.91;5008459;28;20045;-44
2023/05/22 08:54:21;;;;;;;;;;;;;;;23.69;100.00;101546.78;4992735;28;20041;-45
2023/05/22 08:56:48;;;;;;;22.33;12.75;;;;;;;24.34;100.00;101552.50;4996736;28;19997;-46
2023/05/22 08:59:14;;;;;;;24.90;13.95;;;;;;;24.40;100.00;101543.94;4995717;28;20054;-49
2023/05/22 09:01:39;;;;;;;18.58;13.77;;;;;;;24.12;100.00;101555.97;4978135;28;20044;-48
2023/05/22 09:04:05;;;;;;;20.05;13.30;;;;;;;24.59;100.00;101545.03;4978179;28;20038;-48
2023/05/22 09:06:30;;;;;;;24.73;14.77;;;;;;;24.89;100.00;101562.44;4978842;28;20070;-45
2023/05/22 09:08:56;;;;;;;22.88;13.60;;;;;;;24.71;100.00;101491.19;4995239;28;20062;-46
2023/05/22 09:11:22;;;;;;;21.35;13.65;;;;;;;24.78;100.00;101530.94;4977080;28;20042;-48
2023/05/22 09:13:48;;;;;;;22.95;15.10;;;;;;;24.01;100.00;101548.72;4997699;28;20042;-48
2023/05/22 09:16:14;;;;;;;16.52;13.70;;;;;;;24.68;100.00;101502.19;5014447;28;20038;-49
2023/05/22 09:18:41;;;;;;;20.25;15.48;;;;;;;24.88;100.00;101558.00;5014975;28;20367;-48
2023/05/22 09:21:07;;;;;;;20.48;15.38;;;;;;;24.58;100.00;101556.78;4992253;28;20161;-49
2023/05/22 09:23:33;;;;;;;24.15;15.52;;;;;;;24.76;100.00;101549.06;4994763;28;20030;-47
2023/05/22 09:26:00;;;;;;;19.73;14.52;;;;;;;25.21;100.00;101554.41;4974967;28;20049;-45
2023/05/22 09:28:26;;;;;;;18.23;14.48;;;;;;;25.42;100.00;101521.16;4975717;28;20046;-51
2023/05/22 09:30:52;;;;;;;23.30;15.07;;;;;;;25.01;100.00;101558.75;4976023;28;20050;-47
2023/05/22 09:33:19;;;;;;;22.92;15.43;;;;;;;24.90;100.00;101550.66;4977420;28;20030;-50
2023/05/22 09:35:48;;;;;;;24.60;14.60;;;;;;;24.91;100.00;101550.56;4993527;28;20494;-46
2023/05/22 09:38:14;;;;;;;20.27;15.90;;;;;;;25.33;100.00;101548.88;4977988;28;20057;-49
2023/05/22 09:40:40;;;;;;;21.52;16.52;;;;;;;25.95;100.00;101543.59;4995207;28;20117;-45
2023/05/22 09:43:07;;;;;;;18.65;14.70;;;;;;;25.25;100.00;101502.81;4977806;28;20026;-45
2023/05/22 09:45:34;;;;;;;23.60;17.48;;;;;;;25.25;100.00;101543.25;4994717;28;20532;-43
2023/05/22 09:48:00;;;;;;;18.38;15.32;;;;;;;25.83;100.00;101555.44;4977736;28;20087;-46
2023/05/22 09:50:25;;;;;;;18.10;14.75;;;;;;;26.46;100.00;101550.91;4994783;28;20490;-44
2023/05/22 09:52:50;;;;;;;22.85;15.88;;;;;;;26.61;100.00;101563.91;4994653;28;20059;-46
2023/05/22 09:55:20;;;;;;;23.48;17.50;;;;;;;26.63;100.00;101547.56;4977511;28;20546;-46
2023/05/22 09:57:47;;;;;;;23.20;15.57;;;;;;;26.80;100.00;101534.28;4977417;28;20446;-45
2023/05/22 10:00:14;;;;;;;21.48;14.65;;;;;;;26.52;100.00;101564.72;4994626;28;20085;-47
2023/05/22 10:02:48;;;;;;;26.67;15.85;;;;;;;25.75;100.00;101495.91;4977277;28;20041;-43
2023/05/22 10:05:20;;;;;;;22.45;13.20;;;;;;;26.37;100.00;101560.66;4991964;28;20030;-46
2023/05/22 10:07:48;;;;;;;20.02;12.57;;;;;;;26.21;100.00;101506.31;4974866;28;20034;-45
2023/05/22 10:10:16;;;;;;;18.98;12.43;;;;;;;26.89;100.00;101556.94;4993022;28;20100;-45
2023/05/22 10:12:45;;;;;;;20.17;14.25;;;;;;;26.55;100.00;101564.44;4975365;28;20023;-45
2023/05/22 10:15:11;;;;;;;21.17;13.40;;;;;;;26.74;100.00;101558.25;4975236;28;20133;-47
2023/05/22 10:17:37;;;;;;;22.15;14.82;;;;;;;26.66;100.00;101547.28;4991578;28;20529;-45
2023/05/22 10:20:06;;;;;;;20.83;15.55;;;;;;;26.52;100.00;101521.53;4993008;28;20096;-43
2023/05/22 10:22:34;;;;;;;20.45;14.55;;;;;;;26.39;100.00;101511.91;4992603;28;20488;-51
2023/05/22 10:25:00;;;;;;;20.15;13.68;;;;;;;26.63;100.00;101558.38;4975585;28;20026;-48
2023/05/22 10:27:25;;;;;;;23.60;15.85;;;;;;;26.07;100.00;101512.00;4974325;28;20212;-45
2023/05/22 10:30:16;;;;;;;21.48;16.05;;;;;;;26.04;100.00;101559.00;4991947;28;20482;-46
2023/05/22 10:33:12;;;;;;;19.00;14.70;;;;;;;26.27;100.00;101554.34;4992209;28;20073;-45
2023/05/22 10:35:45;;;;;;;20.02;15.25;;;;;;;26.26;100.00;101555.34;4987868;28;20053;-44
2023/05/22 10:38:22;;;;;;;21.88;15.73;;;;;;;26.70;100.00;101563.09;4998208;28;20041;-49
2023/05/22 10:40:48;;;;;;;20.52;14.38;;;;;;;27.01;100.00;101563.94;4994344;28;20109;-46
2023/05/22 10:43:14;;;;;;;23.73;15.07;;;;;;;26.98;100.00;101576.88;4976692;28;20049;-46
2023/05/22 10:45:40;;;;;;;21.38;13.65;;;;;;;26.93;100.00;101563.78;4993652;28;20489;-46
2023/05/22 10:48:13;;;;;;;22.17;12.85;;;;;;;26.15;100.00;101499.59;4993633;28;20038;-44
2023/05/22 10:50:39;;;;;;;21.50;13.85;;;;;;;27.19;100.00;101556.88;4993482;28;20030;-45
2023/05/22 10:53:24;;;;;;;22.90;13.93;;;;;;;27.31;100.00;101547.66;4976173;28;20053;-45
2023/05/22 10:55:54;;;;;;;21.50;13.63;;;;;;;27.15;100.00;101565.38;4993355;28;20034;-47
2023/05/22 10:58:29;;;;;;;20.90;13.93;;;;;;;26.92;100.00;101499.94;4976317;28;20037;-47
2023/05/22 11:01:18;;;;;;;21.80;14.65;;;;;;;27.22;100.00;101553.03;4992167;28;20121;-50